createdAt,value
2023-07-30T00:00:43.187Z,24.09
2023-07-30T00:03:11.359Z,24.13
2023-07-30T00:05:39.451Z,24.13
2023-07-30T00:08:07.833Z,24.14
2023-07-30T00:10:37.790Z,24.16
2023-07-30T00:13:05.805Z,24.13
2023-07-30T00:15:34.735Z,24.17
2023-07-30T00:18:04.205Z,24.15
2023-07-30T00:20:32.197Z,24.18
2023-07-30T00:23:00.230Z,24.20
2023-07-30T00:25:28.202Z,24.23
2023-07-30T00:27:56.190Z,24.21
2023-07-30T00:30:24.183Z,24.18
2023-07-30T00:32:52.199Z,24.25
2023-07-30T00:35:21.553Z,24.22
2023-07-30T00:37:49.560Z,24.25
2023-07-30T00:40:17.696Z,24.26
2023-07-30T00:42:45.639Z,24.31
2023-07-30T00:45:13.596Z,24.33
2023-07-30T00:47:42.778Z,24.34
2023-07-30T00:50:13.314Z,24.39
2023-07-30T00:52:43.147Z,24.46
2023-07-30T00:55:11.517Z,24.45
2023-07-30T00:57:39.668Z,24.47
2023-07-30T01:00:10.149Z,24.42
2023-07-30T01:02:38.878Z,24.43
2023-07-30T01:05:07.468Z,24.45
2023-07-30T01:07:35.548Z,24.42
2023-07-30T01:10:05.369Z,24.47
2023-07-30T01:12:35.167Z,24.45
2023-07-30T01:15:04.379Z,24.46
2023-07-30T01:17:33.018Z,24.48
2023-07-30T01:20:01.008Z,24.48
2023-07-30T01:22:30.388Z,24.44
2023-07-30T01:24:58.525Z,24.48
2023-07-30T01:27:30.120Z,24.41
2023-07-30T01:30:05.710Z,24.41
2023-07-30T01:32:34.828Z,24.41
2023-07-30T01:35:05.791Z,24.36
2023-07-30T01:37:35.838Z,24.37
2023-07-30T01:40:04.129Z,24.34
2023-07-30T01:42:32.435Z,24.40
2023-07-30T01:45:00.460Z,24.37
2023-07-30T01:47:28.545Z,24.35
2023-07-30T01:49:56.548Z,24.53
2023-07-30T01:52:24.495Z,24.48
2023-07-30T01:54:53.827Z,24.48
2023-07-30T01:57:21.814Z,24.50
2023-07-30T01:59:49.902Z,24.45
2023-07-30T02:02:17.852Z,24.43
2023-07-30T02:04:45.773Z,24.40
2023-07-30T02:07:13.772Z,24.32
2023-07-30T02:09:41.759Z,24.31
2023-07-30T02:12:12.426Z,24.35
2023-07-30T02:14:40.429Z,24.33
2023-07-30T02:17:08.408Z,24.25
2023-07-30T02:19:36.383Z,24.24
2023-07-30T02:22:04.499Z,24.27
2023-07-30T02:24:32.394Z,24.23
2023-07-30T02:27:00.399Z,24.18
2023-07-30T02:29:29.946Z,24.15
2023-07-30T02:31:57.934Z,24.13
2023-07-30T02:34:25.828Z,24.16
2023-07-30T02:36:53.781Z,24.25
2023-07-30T02:39:21.730Z,24.27
2023-07-30T02:41:49.721Z,24.24
2023-07-30T02:44:17.876Z,24.15
2023-07-30T02:46:47.233Z,24.25
2023-07-30T02:49:15.094Z,24.31
2023-07-30T02:51:44.438Z,24.14
2023-07-30T02:54:12.352Z,24.06
2023-07-30T02:56:40.332Z,24.06
2023-07-30T02:59:08.268Z,24.07
2023-07-30T03:01:37.125Z,24.03
2023-07-30T03:04:07.702Z,23.94
2023-07-30T03:06:35.594Z,23.97
2023-07-30T03:09:03.964Z,23.95
2023-07-30T03:11:32.023Z,23.95
2023-07-30T03:14:00.066Z,23.95
2023-07-30T03:16:28.076Z,23.90
2023-07-30T03:18:56.105Z,23.92
2023-07-30T03:21:25.406Z,23.90
2023-07-30T03:23:53.305Z,23.88
2023-07-30T03:26:21.245Z,23.83
2023-07-30T03:28:49.149Z,23.88
2023-07-30T03:31:17.246Z,23.87
2023-07-30T03:33:47.017Z,23.88
2023-07-30T03:36:15.683Z,23.88
2023-07-30T03:38:45.444Z,23.90
2023-07-30T03:41:13.389Z,23.92
2023-07-30T03:43:41.397Z,23.91
2023-07-30T03:46:09.405Z,23.93
2023-07-30T03:48:37.389Z,23.97
2023-07-30T03:51:05.387Z,23.96
2023-07-30T03:53:33.348Z,23.98
2023-07-30T03:56:03.152Z,24.00
2023-07-30T03:58:31.785Z,23.97
2023-07-30T04:00:59.837Z,24.00
2023-07-30T04:03:28.054Z,24.01
2023-07-30T04:05:56.056Z,23.99
2023-07-30T04:08:24.139Z,24.05
2023-07-30T04:10:52.071Z,24.07
2023-07-30T04:13:21.395Z,24.04
2023-07-30T04:15:49.906Z,24.09
2023-07-30T04:18:18.081Z,24.18
2023-07-30T04:20:46.036Z,24.12
2023-07-30T04:23:14.115Z,24.11
2023-07-30T04:25:42.064Z,24.05
2023-07-30T04:28:10.039Z,24.17
2023-07-30T04:30:39.493Z,24.18
2023-07-30T04:33:07.556Z,24.20
2023-07-30T04:35:35.660Z,24.21
2023-07-30T04:38:03.676Z,24.20
2023-07-30T04:40:31.721Z,24.21
2023-07-30T04:42:59.634Z,24.27
2023-07-30T04:45:27.683Z,24.32
2023-07-30T04:47:57.106Z,24.29
2023-07-30T04:50:25.139Z,24.29
2023-07-30T04:52:54.198Z,24.41
2023-07-30T04:55:22.286Z,24.36
2023-07-30T04:57:50.271Z,24.36
2023-07-30T05:00:18.496Z,24.40
2023-07-30T05:02:46.453Z,24.38
2023-07-30T05:07:48.530Z,24.36
2023-07-30T05:10:17.426Z,24.37
2023-07-30T05:12:45.550Z,24.42
2023-07-30T05:15:13.520Z,24.39
2023-07-30T05:17:41.513Z,24.35
2023-07-30T05:20:10.871Z,24.37
2023-07-30T05:22:40.362Z,24.42
2023-07-30T05:25:09.069Z,24.41
2023-07-30T05:27:37.416Z,24.40
2023-07-30T05:30:06.266Z,24.45
2023-07-30T05:32:34.403Z,24.46
2023-07-30T05:35:03.088Z,24.44
2023-07-30T05:37:31.124Z,24.45
2023-07-30T05:40:00.409Z,24.45
2023-07-30T05:42:28.506Z,24.47
2023-07-30T05:44:56.484Z,24.48
2023-07-30T05:47:24.519Z,24.52
2023-07-30T05:49:52.468Z,24.53
2023-07-30T05:52:20.482Z,24.53
2023-07-30T05:54:48.469Z,24.53
2023-07-30T05:57:17.779Z,24.53
2023-07-30T05:59:45.776Z,24.55
2023-07-30T06:02:13.697Z,24.57
2023-07-30T06:04:41.739Z,24.57
2023-07-30T06:07:09.752Z,24.60
2023-07-30T06:09:37.683Z,24.55
2023-07-30T06:12:06.092Z,24.53
2023-07-30T06:14:35.389Z,24.53
2023-07-30T06:17:03.606Z,24.62
2023-07-30T06:19:31.651Z,24.61
2023-07-30T06:21:59.687Z,24.59
2023-07-30T06:27:13.689Z,24.57
2023-07-30T06:29:43.089Z,24.60
2023-07-30T06:32:11.179Z,24.61
2023-07-30T06:34:39.156Z,24.62
2023-07-30T06:37:07.116Z,24.61
2023-07-30T06:39:35.038Z,24.58
2023-07-30T06:42:03.219Z,24.62
2023-07-30T06:44:31.159Z,24.62
2023-07-30T06:47:00.572Z,24.64
2023-07-30T06:49:29.602Z,24.65
2023-07-30T06:51:57.653Z,24.72
2023-07-30T06:54:25.688Z,24.75
2023-07-30T06:56:53.654Z,24.76
2023-07-30T06:59:21.527Z,24.78
2023-07-30T07:01:49.527Z,24.77
2023-07-30T07:04:18.828Z,24.80
2023-07-30T07:06:46.841Z,24.81
2023-07-30T07:09:14.759Z,24.75
2023-07-30T07:11:42.663Z,24.75
2023-07-30T07:14:10.533Z,24.73
2023-07-30T07:16:38.570Z,24.74
2023-07-30T07:19:07.051Z,24.76
2023-07-30T07:21:36.832Z,24.80
2023-07-30T07:24:05.302Z,24.80
2023-07-30T07:26:33.323Z,24.78
2023-07-30T07:29:01.235Z,24.80
2023-07-30T07:31:29.537Z,24.81
2023-07-30T07:33:57.611Z,24.74
2023-07-30T07:36:25.644Z,24.68
2023-07-30T07:38:54.973Z,24.66
2023-07-30T07:41:23.150Z,24.64
2023-07-30T07:43:53.935Z,24.62
2023-07-30T07:46:21.955Z,24.60
2023-07-30T07:48:49.991Z,24.59
2023-07-30T07:51:18.036Z,24.56
2023-07-30T07:53:45.963Z,24.62
2023-07-30T07:56:15.324Z,24.56
2023-07-30T07:58:44.182Z,24.45
2023-07-30T08:01:12.210Z,24.47
2023-07-30T08:03:40.328Z,24.33
2023-07-30T08:06:08.693Z,24.25
2023-07-30T08:08:36.670Z,24.37
2023-07-30T08:11:07.361Z,24.33
2023-07-30T08:13:37.772Z,24.24
2023-07-30T08:16:06.199Z,24.09
2023-07-30T08:18:34.185Z,24.01
2023-07-30T08:21:02.178Z,24.02
2023-07-30T08:23:30.093Z,23.97
2023-07-30T08:25:58.041Z,24.03
2023-07-30T08:28:26.045Z,23.97
2023-07-30T08:30:55.404Z,23.98
2023-07-30T08:33:23.472Z,23.96
2023-07-30T08:35:51.425Z,23.88
2023-07-30T08:38:19.313Z,23.80
2023-07-30T08:40:47.317Z,23.75
2023-07-30T08:43:15.467Z,23.83
2023-07-30T08:45:45.922Z,23.73
2023-07-30T08:48:15.845Z,23.70
2023-07-30T08:50:44.328Z,23.66
2023-07-30T08:53:12.739Z,23.64
2023-07-30T08:55:42.482Z,23.58
2023-07-30T08:58:12.852Z,23.63
2023-07-30T09:00:43.229Z,23.45
2023-07-30T09:03:12.366Z,23.38
2023-07-30T09:05:42.137Z,23.36
2023-07-30T09:08:11.858Z,23.30
2023-07-30T09:10:39.935Z,23.35
2023-07-30T09:13:09.108Z,23.29
2023-07-30T09:15:39.470Z,23.34
2023-07-30T09:18:09.750Z,23.27
2023-07-30T09:20:43.020Z,23.30
2023-07-30T09:23:11.796Z,23.29
2023-07-30T09:25:40.680Z,23.16
2023-07-30T09:28:09.294Z,23.24
2023-07-30T09:30:37.357Z,23.23
2023-07-30T09:33:05.587Z,23.19
2023-07-30T09:35:40.498Z,23.17
2023-07-30T09:38:10.040Z,23.34
2023-07-30T09:40:39.932Z,23.31
2023-07-30T09:43:08.269Z,23.28
2023-07-30T09:45:37.844Z,23.25
2023-07-30T09:48:08.163Z,23.34
2023-07-30T09:50:36.763Z,23.33
2023-07-30T09:53:06.047Z,23.39
2023-07-30T09:55:35.649Z,23.24
2023-07-30T09:58:03.704Z,23.31
2023-07-30T10:00:32.254Z,23.34
2023-07-30T10:03:01.183Z,23.33
2023-07-30T10:05:35.108Z,23.30
2023-07-30T10:08:08.938Z,23.33
2023-07-30T10:10:38.904Z,23.31
2023-07-30T10:13:10.293Z,23.28
2023-07-30T10:15:39.966Z,23.28
2023-07-30T10:18:08.163Z,23.31
2023-07-30T10:20:37.112Z,23.25
2023-07-30T10:23:07.085Z,23.32
2023-07-30T10:25:47.709Z,23.48
2023-07-30T10:28:35.105Z,23.32
2023-07-30T10:31:05.212Z,23.34
2023-07-30T10:33:51.490Z,23.37
2023-07-30T10:36:20.850Z,23.38
2023-07-30T10:38:48.954Z,23.30
2023-07-30T10:41:18.750Z,23.33
2023-07-30T10:43:49.798Z,23.39
2023-07-30T10:46:19.490Z,23.41
2023-07-30T10:48:48.567Z,23.46
2023-07-30T10:51:18.147Z,23.40
2023-07-30T10:53:46.423Z,23.35
2023-07-30T10:56:15.214Z,23.41
2023-07-30T10:58:46.347Z,23.37
2023-07-30T11:01:14.414Z,23.46
2023-07-30T11:03:42.570Z,23.48
2023-07-30T11:06:10.642Z,23.49
2023-07-30T11:08:40.342Z,23.58
2023-07-30T11:11:10.034Z,23.56
2023-07-30T11:13:39.176Z,23.51
2023-07-30T11:16:09.688Z,23.50
2023-07-30T11:18:38.562Z,23.51
2023-07-30T11:21:07.760Z,23.48
2023-07-30T11:23:36.494Z,23.54
2023-07-30T11:26:06.323Z,23.56
2023-07-30T11:28:37.732Z,23.47
2023-07-30T11:31:09.548Z,23.49
2023-07-30T11:33:38.902Z,23.37
2023-07-30T11:36:09.560Z,23.50
2023-07-30T11:38:37.860Z,23.52
2023-07-30T11:41:06.622Z,23.53
2023-07-30T11:43:34.731Z,23.52
2023-07-30T11:46:15.267Z,23.55
2023-07-30T11:48:45.966Z,23.54
2023-07-30T11:51:22.659Z,23.58
2023-07-30T11:53:52.586Z,23.65
2023-07-30T11:56:25.981Z,23.62
2023-07-30T11:58:58.406Z,23.57
2023-07-30T12:01:29.116Z,23.58
2023-07-30T12:03:57.905Z,23.54
2023-07-30T12:06:26.460Z,23.60
2023-07-30T12:08:54.531Z,23.68
2023-07-30T12:11:22.549Z,23.56
2023-07-30T12:13:51.630Z,23.58
2023-07-30T12:16:22.055Z,23.63
2023-07-30T12:18:51.683Z,23.66
2023-07-30T12:21:19.708Z,23.61
2023-07-30T12:23:48.874Z,23.59
2023-07-30T12:26:16.944Z,23.62
2023-07-30T12:28:45.042Z,23.61
2023-07-30T12:31:13.058Z,23.61
2023-07-30T12:33:41.129Z,23.57
2023-07-30T12:36:10.582Z,23.62
2023-07-30T12:38:38.578Z,23.64
2023-07-30T12:41:06.561Z,23.76
2023-07-30T12:43:34.520Z,23.55
2023-07-30T12:46:02.609Z,23.57
2023-07-30T12:48:31.053Z,23.63
2023-07-30T12:50:59.428Z,23.65
2023-07-30T12:53:28.889Z,23.65
2023-07-30T12:55:56.948Z,23.70
2023-07-30T12:58:24.925Z,23.77
2023-07-30T13:00:54.213Z,23.80
2023-07-30T13:03:23.363Z,23.80
2023-07-30T13:05:53.162Z,23.82
2023-07-30T13:08:22.928Z,23.81
2023-07-30T13:10:53.117Z,23.84
2023-07-30T13:13:21.721Z,23.82
2023-07-30T13:15:51.395Z,23.85
2023-07-30T13:18:20.409Z,23.93
2023-07-30T13:20:49.164Z,23.90
2023-07-30T13:23:18.003Z,23.89
2023-07-30T13:25:47.164Z,23.69
2023-07-30T13:28:20.268Z,23.78
2023-07-30T13:30:48.275Z,23.83
2023-07-30T13:33:17.097Z,23.83
2023-07-30T13:35:47.019Z,23.93
2023-07-30T13:38:17.474Z,23.88
2023-07-30T13:40:45.965Z,23.82
2023-07-30T13:43:16.996Z,23.83
2023-07-30T13:45:45.950Z,23.82
2023-07-30T13:48:14.178Z,23.82
2023-07-30T13:50:42.342Z,23.93
2023-07-30T13:53:10.836Z,23.95
2023-07-30T13:55:39.728Z,23.96
2023-07-30T13:58:08.225Z,24.00
2023-07-30T14:00:37.947Z,24.00
2023-07-30T14:03:10.651Z,24.03
2023-07-30T14:05:39.714Z,24.06
2023-07-30T14:08:08.305Z,24.18
2023-07-30T14:10:36.315Z,24.23
2023-07-30T14:13:05.414Z,24.19
2023-07-30T14:15:33.890Z,24.20
2023-07-30T14:18:04.338Z,24.22
2023-07-30T14:20:33.325Z,24.25
2023-07-30T14:23:02.632Z,24.25
2023-07-30T14:25:30.946Z,24.23
2023-07-30T14:27:59.213Z,24.23
2023-07-30T14:30:27.615Z,24.23
2023-07-30T14:32:56.688Z,24.23
2023-07-30T14:35:27.875Z,24.37
2023-07-30T14:37:56.189Z,24.35
2023-07-30T14:40:24.499Z,24.33
2023-07-30T14:42:52.522Z,24.34
2023-07-30T14:45:21.163Z,24.37
2023-07-30T14:47:50.252Z,24.37
2023-07-30T14:50:19.042Z,24.37
2023-07-30T14:52:48.778Z,24.52
2023-07-30T14:55:16.897Z,24.50
2023-07-30T14:57:45.368Z,24.59
2023-07-30T15:00:17.760Z,24.54
2023-07-30T15:02:46.466Z,24.56
2023-07-30T15:05:14.947Z,24.70
2023-07-30T15:07:43.083Z,24.69
2023-07-30T15:10:12.777Z,24.70
2023-07-30T15:12:40.770Z,24.74
2023-07-30T15:15:10.217Z,24.69
2023-07-30T15:17:38.496Z,24.67
2023-07-30T15:20:07.938Z,24.68
2023-07-30T15:22:36.441Z,24.64
2023-07-30T15:25:05.635Z,24.60
2023-07-30T15:27:35.751Z,24.78
2023-07-30T15:30:06.009Z,24.90
2023-07-30T15:32:42.764Z,24.96
2023-07-30T15:35:12.590Z,24.86
2023-07-30T15:37:41.636Z,24.82
2023-07-30T15:40:10.936Z,24.76
2023-07-30T15:42:42.008Z,24.76
2023-07-30T15:45:10.751Z,24.70
2023-07-30T15:47:39.615Z,24.66
2023-07-30T15:50:09.693Z,24.62
2023-07-30T15:52:38.612Z,24.62
2023-07-30T15:55:08.604Z,24.55
2023-07-30T15:57:36.986Z,24.60
2023-07-30T16:00:09.928Z,24.61
2023-07-30T16:02:38.808Z,24.58
2023-07-30T16:05:08.225Z,24.62
2023-07-30T16:07:37.614Z,24.62
2023-07-30T16:10:06.380Z,24.68
2023-07-30T16:12:35.844Z,24.65
2023-07-30T16:15:04.576Z,24.61
2023-07-30T16:17:35.824Z,24.57
2023-07-30T16:20:05.899Z,24.50
2023-07-30T16:22:34.399Z,24.55
2023-07-30T16:25:03.119Z,24.57
2023-07-30T16:27:31.753Z,24.50
2023-07-30T16:30:00.897Z,24.49
2023-07-30T16:32:30.610Z,24.47
2023-07-30T16:35:01.290Z,24.46
2023-07-30T16:37:30.185Z,24.43
2023-07-30T16:39:58.869Z,24.44
2023-07-30T16:42:27.959Z,24.41
2023-07-30T16:44:56.582Z,24.39
2023-07-30T16:47:25.843Z,24.38
2023-07-30T16:49:54.354Z,24.37
2023-07-30T16:52:25.242Z,24.37
2023-07-30T16:54:53.758Z,24.40
2023-07-30T16:57:23.512Z,24.36
2023-07-30T16:59:52.677Z,24.33
2023-07-30T17:02:21.891Z,24.33
2023-07-30T17:04:50.901Z,24.29
2023-07-30T17:07:20.541Z,24.28
2023-07-30T17:09:50.659Z,24.33
2023-07-30T17:12:19.357Z,24.29
2023-07-30T17:14:48.189Z,24.28
2023-07-30T17:17:17.133Z,24.25
2023-07-30T17:19:45.815Z,24.24
2023-07-30T17:22:14.323Z,24.26
2023-07-30T17:24:43.301Z,24.23
2023-07-30T17:27:15.199Z,24.23
2023-07-30T17:29:43.640Z,24.24
2023-07-30T17:32:12.741Z,24.23
2023-07-30T17:34:41.121Z,24.26
2023-07-30T17:37:09.522Z,24.21
2023-07-30T17:39:39.474Z,24.18
2023-07-30T17:42:09.148Z,24.19
2023-07-30T17:44:38.929Z,24.18
2023-07-30T17:47:08.477Z,24.16
2023-07-30T17:49:37.413Z,24.19
2023-07-30T17:52:07.534Z,24.29
2023-07-30T17:54:36.402Z,24.28
2023-07-30T17:57:05.866Z,24.20
2023-07-30T17:59:34.953Z,24.17
2023-07-30T18:02:06.561Z,24.13
2023-07-30T18:04:35.777Z,24.14
2023-07-30T18:07:05.597Z,24.11
2023-07-30T18:09:34.806Z,24.11
2023-07-30T18:12:03.422Z,24.09
2023-07-30T18:14:32.827Z,24.08
2023-07-30T18:17:02.028Z,24.15
2023-07-30T18:19:35.083Z,24.07
2023-07-30T18:22:03.963Z,24.03
2023-07-30T18:24:32.417Z,24.02
2023-07-30T18:27:03.820Z,24.06
2023-07-30T18:29:32.857Z,24.03
2023-07-30T18:32:08.298Z,24.00
2023-07-30T18:34:38.749Z,23.96
2023-07-30T18:37:09.610Z,23.95
2023-07-30T18:39:38.102Z,23.94
2023-07-30T18:42:09.222Z,23.91
2023-07-30T18:44:37.685Z,24.07
2023-07-30T18:47:07.795Z,23.93
2023-07-30T18:49:37.105Z,23.83
2023-07-30T18:52:07.970Z,23.84
2023-07-30T18:54:36.102Z,23.78
2023-07-30T18:57:05.551Z,23.75
2023-07-30T18:59:34.180Z,23.75
2023-07-30T19:02:03.494Z,23.77
2023-07-30T19:04:32.022Z,23.66
2023-07-30T19:07:01.700Z,23.66
2023-07-30T19:09:33.683Z,23.68
2023-07-30T19:12:03.346Z,23.70
2023-07-30T19:14:31.294Z,23.64
2023-07-30T19:17:00.204Z,23.73
2023-07-30T19:19:29.746Z,23.64
2023-07-30T19:21:58.244Z,23.57
2023-07-30T19:24:29.613Z,23.63
2023-07-30T19:26:58.981Z,23.49
2023-07-30T19:29:30.408Z,23.52
2023-07-30T19:31:59.649Z,23.52
2023-07-30T19:34:29.691Z,23.48
2023-07-30T19:37:01.388Z,23.46
2023-07-30T19:39:31.114Z,23.44
2023-07-30T19:42:01.171Z,23.33
2023-07-30T19:44:29.747Z,23.35
2023-07-30T19:46:58.993Z,23.36
2023-07-30T19:49:28.101Z,23.31
2023-07-30T19:51:57.799Z,23.31
2023-07-30T19:54:26.468Z,23.28
2023-07-30T19:56:57.220Z,23.24
2023-07-30T19:59:27.743Z,23.23
2023-07-30T20:01:56.300Z,23.30
2023-07-30T20:04:28.373Z,23.31
2023-07-30T20:06:57.799Z,23.31
2023-07-30T20:09:26.370Z,23.23
2023-07-30T20:11:55.594Z,23.31
2023-07-30T20:14:24.741Z,23.21
2023-07-30T20:16:55.383Z,23.21
2023-07-30T20:19:25.431Z,23.29
2023-07-30T20:21:54.364Z,23.31
2023-07-30T20:24:24.087Z,23.23
2023-07-30T20:26:53.180Z,23.22
2023-07-30T20:29:22.364Z,23.26
2023-07-30T20:31:51.536Z,23.31
2023-07-30T20:34:22.699Z,23.18
2023-07-30T20:36:52.123Z,23.21
2023-07-30T20:39:20.715Z,23.20
2023-07-30T20:41:51.789Z,23.22
2023-07-30T20:44:20.488Z,23.23
2023-07-30T20:46:49.336Z,23.20
2023-07-30T20:49:17.990Z,23.17
2023-07-30T20:51:48.636Z,23.14
2023-07-30T20:54:17.179Z,23.17
2023-07-30T20:56:46.025Z,23.13
2023-07-30T20:59:14.885Z,23.17
2023-07-30T21:01:42.834Z,23.15
2023-07-30T21:04:10.810Z,23.18
2023-07-30T21:06:38.884Z,23.15
2023-07-30T21:09:08.393Z,23.07
2023-07-30T21:11:36.398Z,23.02
2023-07-30T21:14:04.339Z,23.02
2023-07-30T21:16:32.403Z,23.02
2023-07-30T21:19:00.399Z,23.03
2023-07-30T21:21:28.367Z,23.10
2023-07-30T21:23:56.355Z,23.04
2023-07-30T21:26:25.746Z,23.09
2023-07-30T21:28:53.771Z,23.05
2023-07-30T21:31:21.889Z,23.05
2023-07-30T21:33:49.989Z,23.05
2023-07-30T21:36:21.623Z,23.05
2023-07-30T21:38:49.492Z,23.05
2023-07-30T21:41:17.447Z,23.04
2023-07-30T21:43:46.725Z,23.02
2023-07-30T21:46:14.694Z,23.11
2023-07-30T21:48:42.678Z,23.04
2023-07-30T21:51:10.742Z,22.96
2023-07-30T21:53:40.243Z,22.99
2023-07-30T21:56:08.209Z,22.92
2023-07-30T21:58:36.184Z,22.95
2023-07-30T22:01:05.654Z,22.93
2023-07-30T22:03:33.798Z,22.88
2023-07-30T22:06:01.894Z,22.88
2023-07-30T22:08:29.912Z,22.91
2023-07-30T22:10:57.939Z,22.78
2023-07-30T22:13:25.973Z,22.75
2023-07-30T22:15:54.072Z,22.66
2023-07-30T22:18:23.410Z,22.69
2023-07-30T22:20:51.410Z,22.70
2023-07-30T22:23:20.417Z,22.76
2023-07-30T22:25:48.392Z,22.75
2023-07-30T22:28:16.397Z,22.62
2023-07-30T22:30:44.368Z,22.64
2023-07-30T22:33:12.474Z,22.57
2023-07-30T22:35:41.772Z,22.59
2023-07-30T22:38:09.656Z,22.65
2023-07-30T22:40:39.871Z,22.61
2023-07-30T22:43:07.854Z,22.58
2023-07-30T22:45:35.886Z,22.63
2023-07-30T22:48:03.997Z,22.69
2023-07-30T22:50:32.099Z,22.68
2023-07-30T22:53:01.377Z,22.70
2023-07-30T22:55:29.299Z,22.65
2023-07-30T22:57:57.300Z,22.71
2023-07-30T23:00:25.402Z,22.66
2023-07-30T23:02:53.448Z,22.66
2023-07-30T23:05:21.567Z,22.62
2023-07-30T23:07:49.488Z,22.68
2023-07-30T23:10:21.027Z,22.65
2023-07-30T23:12:48.982Z,22.66
2023-07-30T23:15:17.299Z,22.66
2023-07-30T23:17:45.285Z,22.68
2023-07-30T23:20:13.620Z,22.72
2023-07-30T23:22:41.584Z,22.69
2023-07-30T23:25:10.428Z,22.74
2023-07-30T23:30:08.626Z,22.67
2023-07-30T23:35:04.705Z,22.74
2023-07-30T23:37:32.695Z,22.77
2023-07-30T23:40:00.967Z,22.76
2023-07-30T23:42:28.926Z,22.76
2023-07-30T23:44:58.263Z,22.86
2023-07-30T23:47:26.296Z,22.70
2023-07-30T23:49:54.381Z,22.68
2023-07-30T23:52:22.377Z,22.76
2023-07-30T23:54:50.359Z,22.74
2023-07-30T23:57:18.375Z,22.70
2023-07-30T23:59:47.752Z,22.61
